Time;durP1;ratioP1;P1;durP2;ratioP2;P2;SDS_P1;SDS_P2;PMS_P1;PMS_P2;Temp;Humidity;BMP_temperature;BMP_pressure;BME280_temperature;BME280_humidity;BME280_pressure;Samples;Min_cycle;Max_cycle;Signal;HPM_P1;HPM_P2
2023/09/27 00:00:22;;;;;;;4.05;3.65;;;18.50;51.10;;;;;;20229;6941;309989;31
2023/09/27 00:02:48;;;;;;;3.97;3.57;;;18.60;50.80;;;;;;20412;6941;125084;31
2023/09/27 00:05:14;;;;;;;3.40;3.30;;;18.40;50.90;;;;;;20423;6941;117748;31
2023/09/27 00:07:38;;;;;;;3.23;3.03;;;18.00;51.30;;;;;;20432;6941;117735;31
2023/09/27 00:10:04;;;;;;;4.10;3.47;;;17.70;51.70;;;;;;20430;6941;118628;31
2023/09/27 00:12:30;;;;;;;3.67;3.40;;;17.50;52.20;;;;;;20412;6940;117484;31
2023/09/27 00:14:55;;;;;;;4.62;4.22;;;17.30;52.50;;;;;;20220;6941;344073;31
2023/09/27 00:17:21;;;;;;;4.35;4.05;;;17.50;53.10;;;;;;20218;6941;310628;31
2023/09/27 00:19:46;;;;;;;3.80;3.60;;;17.80;52.60;;;;;;20434;6941;117411;31
2023/09/27 00:22:12;;;;;;;3.80;3.50;;;17.70;52.40;;;;;;20431;6941;117854;31
2023/09/27 00:24:38;;;;;;;4.00;3.70;;;17.50;52.70;;;;;;20201;6941;339650;31
2023/09/27 00:27:04;;;;;;;4.00;3.70;;;17.60;53.20;;;;;;20430;6941;118753;31
2023/09/27 00:29:28;;;;;;;4.40;4.20;;;17.50;52.90;;;;;;20224;6941;311044;31
2023/09/27 00:31:54;;;;;;;4.07;3.78;;;17.70;53.30;;;;;;20439;6941;120934;31
2023/09/27 00:34:20;;;;;;;4.80;4.50;;;17.60;53.10;;;;;;20230;6941;310533;31
2023/09/27 00:36:45;;;;;;;4.80;4.50;;;17.70;53.40;;;;;;20214;6941;295001;31
2023/09/27 00:39:11;;;;;;;4.80;4.50;;;17.90;53.20;;;;;;20238;6941;281640;31
2023/09/27 00:41:36;;;;;;;4.23;3.97;;;18.10;52.80;;;;;;20440;6941;116570;31
2023/09/27 00:44:02;;;;;;;5.05;4.68;;;17.90;52.70;;;;;;20231;6941;282348;31
2023/09/27 00:46:27;;;;;;;4.18;3.87;;;17.90;53.10;;;;;;20430;6941;117929;31
2023/09/27 00:48:54;;;;;;;3.75;3.55;;;17.70;53.10;;;;;;20446;6941;117823;31
2023/09/27 00:51:19;;;;;;;4.00;3.70;;;17.40;53.60;;;;;;20433;6941;117502;31
2023/09/27 00:53:44;;;;;;;4.40;4.20;;;17.10;54.00;;;;;;20227;6941;311000;31
2023/09/27 00:56:10;;;;;;;4.45;4.10;;;17.30;54.30;;;;;;20222;6941;280788;31
2023/09/27 00:58:35;;;;;;;6.13;4.33;;;17.70;53.60;;;;;;20413;6941;122108;31
2023/09/27 01:01:02;;;;;;;4.90;4.60;;;17.70;53.40;;;;;;20218;6941;310589;31
2023/09/27 01:03:29;;;;;;;4.37;4.07;;;17.80;53.60;;;;;;20223;6941;314691;31
2023/09/27 01:05:54;;;;;;;3.95;3.67;;;18.00;52.90;;;;;;20221;6941;340160;31
2023/09/27 01:08:21;;;;;;;4.12;3.90;;;18.30;52.10;;;;;;20228;6941;311269;31
2023/09/27 01:10:45;;;;;;;3.80;3.50;;;18.30;51.50;;;;;;20412;6941;117786;31
2023/09/27 01:13:11;;;;;;;3.60;3.40;;;18.00;51.70;;;;;;20430;6941;123623;31
2023/09/27 01:15:37;;;;;;;4.00;3.60;;;17.60;52.30;;;;;;20222;6941;342928;31
2023/09/27 01:18:03;;;;;;;4.10;3.70;;;17.50;52.20;;;;;;20226;6941;281853;31
2023/09/27 01:20:28;;;;;;;4.50;4.20;;;17.70;52.20;;;;;;20203;6941;300957;31
2023/09/27 01:23:02;;;;;;;4.23;3.80;;;17.90;51.70;;;;;;20426;6939;123341;31
2023/09/27 01:25:28;;;;;;;4.40;4.10;;;17.60;51.90;;;;;;20222;6941;311249;31
2023/09/27 01:27:53;;;;;;;4.00;3.80;;;17.60;52.20;;;;;;20432;6941;117978;31
2023/09/27 01:30:19;;;;;;;3.87;3.50;;;17.40;52.30;;;;;;20423;6941;117427;31
2023/09/27 01:32:44;;;;;;;3.83;3.53;;;17.00;52.70;;;;;;20325;6941;117552;31
2023/09/27 01:35:11;;;;;;;4.55;4.25;;;16.70;53.00;;;;;;20191;6941;311183;31
2023/09/27 01:37:36;;;;;;;4.65;4.25;;;16.80;53.60;;;;;;20174;6941;310668;31
2023/09/27 01:40:06;;;;;;;4.43;4.12;;;17.00;52.50;;;;;;20174;6941;315082;31
2023/09/27 01:42:28;;;;;;;4.90;4.50;;;17.30;52.60;;;;;;20128;6941;313628;31
2023/09/27 01:44:53;;;;;;;4.43;4.12;;;17.40;52.00;;;;;;20161;6941;344772;31
2023/09/27 01:47:19;;;;;;;4.60;4.40;;;17.50;52.30;;;;;;20164;6941;285036;31
2023/09/27 01:49:44;;;;;;;5.20;3.80;;;17.60;51.60;;;;;;20369;6941;117476;31
2023/09/27 01:52:10;;;;;;;4.32;4.03;;;17.30;51.80;;;;;;20170;6941;309780;31
2023/09/27 01:54:35;;;;;;;4.40;3.90;;;17.30;51.80;;;;;;20399;6941;118044;31
2023/09/27 01:57:01;;;;;;;4.45;4.15;;;17.10;52.10;;;;;;20229;6941;311231;31
2023/09/27 01:59:27;;;;;;;4.53;4.23;;;17.10;52.80;;;;;;20435;6941;120490;31
2023/09/27 02:01:52;;;;;;;4.47;4.17;;;17.00;53.50;;;;;;20236;6941;287294;31
2023/09/27 02:04:18;;;;;;;4.50;4.20;;;17.10;52.50;;;;;;20236;6941;307039;31
2023/09/27 02:06:43;;;;;;;4.43;4.17;;;17.30;52.20;;;;;;20423;6941;117811;31
2023/09/27 02:09:09;;;;;;;5.07;4.68;;;17.20;52.30;;;;;;20243;6941;281037;31
2023/09/27 02:11:34;;;;;;;4.33;4.03;;;17.20;52.60;;;;;;20236;6941;306112;31
2023/09/27 02:14:03;;;;;;;4.53;3.80;;;17.40;52.60;;;;;;20442;6941;117955;31
2023/09/27 02:16:26;;;;;;;4.60;4.20;;;17.20;52.50;;;;;;20227;6941;309944;31
2023/09/27 02:18:52;;;;;;;4.13;3.93;;;17.20;52.10;;;;;;20421;6941;120245;31
2023/09/27 02:21:17;;;;;;;4.62;4.25;;;17.00;52.20;;;;;;20226;6941;282206;31
2023/09/27 02:23:45;;;;;;;3.93;3.73;;;17.00;52.00;;;;;;20433;6941;117349;31
2023/09/27 02:26:09;;;;;;;4.40;4.10;;;16.80;52.10;;;;;;20223;6941;281800;31
2023/09/27 02:28:35;;;;;;;4.80;4.43;;;16.80;52.20;;;;;;20214;6941;281112;31
2023/09/27 02:31:00;;;;;;;4.23;4.00;;;16.90;51.70;;;;;;20435;6941;118182;31
2023/09/27 02:33:27;;;;;;;5.00;4.60;;;16.70;52.00;;;;;;20225;6941;341353;31
2023/09/27 02:35:51;;;;;;;5.15;4.72;;;16.70;52.30;;;;;;20225;6939;310411;31
2023/09/27 02:38:17;;;;;;;5.20;4.90;;;16.80;52.30;;;;;;20437;6941;117386;31
2023/09/27 02:40:43;;;;;;;5.50;4.95;;;16.60;52.50;;;;;;20209;6941;340718;31
2023/09/27 02:43:08;;;;;;;4.73;4.43;;;16.60;53.10;;;;;;20434;6941;118101;31
2023/09/27 02:45:34;;;;;;;4.30;4.10;;;16.50;53.10;;;;;;20437;6941;117946;31
2023/09/27 02:47:59;;;;;;;5.65;5.25;;;16.20;53.50;;;;;;20225;6941;315230;31
2023/09/27 02:50:26;;;;;;;5.03;4.73;;;16.30;53.50;;;;;;20436;6941;123836;31
2023/09/27 02:52:52;;;;;;;6.07;5.57;;;16.30;53.50;;;;;;20212;6941;311745;31
2023/09/27 02:55:17;;;;;;;5.20;4.90;;;16.40;53.80;;;;;;20444;6941;118045;31
2023/09/27 02:57:48;;;;;;;5.55;5.15;;;16.30;53.80;;;;;;20233;6941;314273;31
2023/09/27 03:00:11;;;;;;;4.77;4.47;;;16.40;54.00;;;;;;20429;6941;117439;31
2023/09/27 03:02:37;;;;;;;6.07;5.57;;;16.20;53.70;;;;;;20209;6941;310823;31
2023/09/27 03:05:07;;;;;;;5.65;5.28;;;16.30;53.80;;;;;;20235;6941;288864;31
2023/09/27 03:07:31;;;;;;;5.62;5.28;;;16.60;53.70;;;;;;20218;6941;314965;31
2023/09/27 03:09:58;;;;;;;5.97;5.57;;;16.80;53.10;;;;;;20226;6941;280781;31
2023/09/27 03:12:22;;;;;;;5.95;5.55;;;16.90;52.50;;;;;;20213;6941;310096;31
2023/09/27 03:14:47;;;;;;;6.00;5.60;;;17.00;52.40;;;;;;20205;6941;349125;31
2023/09/27 03:17:13;;;;;;;5.83;5.47;;;17.00;52.30;;;;;;20434;6941;117473;31
2023/09/27 03:19:40;;;;;;;5.93;5.03;;;16.80;52.60;;;;;;20436;6941;117459;31
2023/09/27 03:22:05;;;;;;;5.03;4.63;;;16.30;53.20;;;;;;20430;6941;117502;31
2023/09/27 03:24:34;;;;;;;5.50;5.00;;;16.00;53.70;;;;;;20419;6941;123502;31
2023/09/27 03:26:57;;;;;;;5.63;5.23;;;15.70;54.10;;;;;;20226;6941;281893;31
2023/09/27 03:29:22;;;;;;;5.57;5.17;;;15.80;54.20;;;;;;20228;6941;314190;31
2023/09/27 03:31:48;;;;;;;5.35;5.05;;;16.20;53.60;;;;;;20215;6941;281116;31
2023/09/27 03:34:13;;;;;;;4.87;4.43;;;16.40;53.00;;;;;;20439;6941;117564;31
2023/09/27 03:36:39;;;;;;;5.32;4.93;;;16.20;53.00;;;;;;20215;6941;287933;31
2023/09/27 03:39:04;;;;;;;5.60;5.27;;;16.20;52.90;;;;;;20235;6941;310378;31
2023/09/27 03:41:30;;;;;;;5.73;5.43;;;16.40;52.90;;;;;;20231;6941;281249;31
2023/09/27 03:43:56;;;;;;;4.80;4.40;;;16.50;52.50;;;;;;20437;6941;117915;31
2023/09/27 03:46:21;;;;;;;4.93;4.57;;;16.30;52.80;;;;;;20440;6939;117448;31
2023/09/27 03:48:47;;;;;;;5.18;4.87;;;16.00;53.40;;;;;;20206;6941;318861;31
2023/09/27 03:51:12;;;;;;;5.83;5.43;;;16.10;53.60;;;;;;20223;6941;311156;31
2023/09/27 03:53:38;;;;;;;7.45;5.60;;;16.30;53.10;;;;;;20439;6941;117435;31
2023/09/27 03:56:03;;;;;;;5.60;5.30;;;16.20;53.10;;;;;;20220;6941;310088;31
2023/09/27 03:58:29;;;;;;;6.03;5.53;;;16.30;53.80;;;;;;20224;6941;310865;31
2023/09/27 04:00:55;;;;;;;6.10;5.40;;;16.50;53.90;;;;;;20230;6941;340625;31
2023/09/27 04:03:20;;;;;;;5.60;5.20;;;16.80;54.00;;;;;;20240;6941;282001;31
2023/09/27 04:05:46;;;;;;;6.17;5.67;;;16.90;53.60;;;;;;20236;6941;313077;31
2023/09/27 04:08:11;;;;;;;6.37;5.97;;;17.00;53.30;;;;;;20231;6941;309964;31
2023/09/27 04:10:37;;;;;;;5.83;5.33;;;17.10;53.00;;;;;;20425;6941;125538;31
2023/09/27 04:13:03;;;;;;;6.63;6.13;;;16.80;53.10;;;;;;20234;6941;315765;31
2023/09/27 04:15:28;;;;;;;6.17;5.77;;;16.80;53.20;;;;;;20230;6941;306526;31
2023/09/27 04:17:54;;;;;;;6.70;6.30;;;16.90;53.00;;;;;;20223;6941;309905;31
2023/09/27 04:20:21;;;;;;;5.85;5.55;;;17.00;52.60;;;;;;20442;6941;117928;31
2023/09/27 04:22:45;;;;;;;5.60;5.20;;;16.80;52.90;;;;;;20409;6941;122549;31
2023/09/27 04:25:14;;;;;;;6.23;5.73;;;16.40;53.50;;;;;;20430;6941;117838;31
2023/09/27 04:27:39;;;;;;;6.37;5.87;;;16.10;54.00;;;;;;20433;6941;118043;31
2023/09/27 04:30:07;;;;;;;6.30;5.90;;;15.90;54.40;;;;;;20234;6941;283115;31
2023/09/27 04:32:30;;;;;;;7.30;6.70;;;16.00;54.60;;;;;;20210;6941;280296;31
2023/09/27 04:34:58;;;;;;;6.70;6.30;;;16.30;53.80;;;;;;20222;6941;282483;31
2023/09/27 04:37:23;;;;;;;5.97;5.57;;;16.60;53.50;;;;;;20127;6941;313434;31
2023/09/27 04:39:48;;;;;;;4.40;4.10;;;16.80;53.00;;;;;;20426;6941;117728;31
2023/09/27 04:42:14;;;;;;;5.47;4.43;;;16.60;53.00;;;;;;20393;6941;117581;31
2023/09/27 04:44:41;;;;;;;4.60;4.40;;;16.10;53.30;;;;;;20426;6941;120682;31
2023/09/27 04:47:07;;;;;;;4.83;4.13;;;15.80;53.70;;;;;;20443;6941;117681;31
2023/09/27 04:49:32;;;;;;;5.00;4.53;;;15.50;54.00;;;;;;20447;6941;118438;31
2023/09/27 04:51:57;;;;;;;4.90;4.60;;;15.30;54.20;;;;;;20239;6941;311266;31
2023/09/27 04:54:24;;;;;;;5.47;4.97;;;15.40;53.30;;;;;;20228;6941;310631;31
2023/09/27 04:56:50;;;;;;;4.67;4.10;;;15.70;52.50;;;;;;20426;6941;121095;31
2023/09/27 04:59:15;;;;;;;4.78;4.47;;;15.60;52.50;;;;;;20233;6939;343096;31
2023/09/27 05:01:41;;;;;;;4.50;4.10;;;15.60;52.90;;;;;;20441;6941;117427;31
2023/09/27 05:04:06;;;;;;;4.00;3.80;;;15.40;52.50;;;;;;20434;6941;117390;31
2023/09/27 05:06:32;;;;;;;5.10;4.68;;;15.10;53.00;;;;;;20211;6941;341258;31
2023/09/27 05:08:58;;;;;;;5.05;4.75;;;15.20;53.30;;;;;;20229;6941;281127;31
2023/09/27 05:11:23;;;;;;;5.05;4.70;;;15.50;52.80;;;;;;20219;6941;312956;31
2023/09/27 05:13:49;;;;;;;4.83;4.50;;;15.70;52.30;;;;;;20216;6941;311206;31
2023/09/27 05:16:16;;;;;;;4.50;4.20;;;15.90;51.80;;;;;;20437;6941;119395;31
2023/09/27 05:18:41;;;;;;;4.27;3.87;;;15.70;52.20;;;;;;20376;6941;119825;31
2023/09/27 05:21:07;;;;;;;4.60;4.30;;;15.30;52.70;;;;;;20435;6941;119582;31
2023/09/27 05:23:32;;;;;;;4.10;3.90;;;15.10;53.10;;;;;;20436;6941;117767;31
2023/09/27 05:26:00;;;;;;;5.12;4.82;;;14.80;53.50;;;;;;20233;6941;311647;31
2023/09/27 05:28:27;;;;;;;5.40;5.00;;;15.00;53.70;;;;;;20444;6941;120634;31
2023/09/27 05:30:51;;;;;;;4.43;4.17;;;15.00;53.50;;;;;;20423;6941;117726;31
2023/09/27 05:33:18;;;;;;;4.90;4.40;;;14.80;53.70;;;;;;20442;6941;121954;31
2023/09/27 05:35:42;;;;;;;4.45;4.05;;;14.60;53.90;;;;;;20437;6941;117690;31
2023/09/27 05:38:08;;;;;;;4.60;4.20;;;14.60;54.20;;;;;;20434;6941;124260;31
2023/09/27 05:40:34;;;;;;;4.80;4.60;;;14.50;54.40;;;;;;20206;6941;310684;31
2023/09/27 05:42:59;;;;;;;5.03;4.60;;;14.70;54.20;;;;;;20435;6941;117681;31
2023/09/27 05:45:25;;;;;;;4.50;4.20;;;14.80;53.90;;;;;;20430;6941;118690;31
2023/09/27 05:47:50;;;;;;;5.50;5.10;;;14.70;54.00;;;;;;20228;6941;310833;31
2023/09/27 05:50:16;;;;;;;5.27;4.87;;;14.80;53.80;;;;;;20424;6941;117999;31
2023/09/27 05:52:43;;;;;;;5.13;4.73;;;14.80;53.70;;;;;;20406;6941;118969;31
2023/09/27 05:55:07;;;;;;;5.85;5.45;;;14.70;54.10;;;;;;20211;6941;338158;31
2023/09/27 05:57:33;;;;;;;5.57;5.13;;;14.90;53.90;;;;;;20430;6941;118665;31
2023/09/27 06:00:00;;;;;;;5.68;5.37;;;14.90;53.90;;;;;;20221;6941;282509;31
2023/09/27 06:02:30;;;;;;;5.87;5.47;;;15.20;53.90;;;;;;20228;6941;282040;31
2023/09/27 06:04:51;;;;;;;5.65;5.35;;;15.50;53.50;;;;;;20198;6941;281250;31
2023/09/27 06:07:17;;;;;;;5.70;5.40;;;15.90;52.90;;;;;;20233;6941;310365;31
2023/09/27 06:09:42;;;;;;;4.80;4.60;;;16.20;52.40;;;;;;20445;6940;117373;31
2023/09/27 06:12:07;;;;;;;4.93;4.53;;;16.10;52.50;;;;;;20439;6941;118148;31
2023/09/27 06:14:38;;;;;;;5.47;5.18;;;15.90;53.00;;;;;;20215;6941;310833;31
2023/09/27 06:17:02;;;;;;;6.00;5.40;;;16.00;53.30;;;;;;20231;6941;310779;31
2023/09/27 06:19:28;;;;;;;5.50;5.20;;;16.40;52.00;;;;;;20230;6941;309892;31
2023/09/27 06:21:53;;;;;;;5.63;5.23;;;16.80;51.60;;;;;;20237;6941;310835;31
2023/09/27 06:24:20;;;;;;;4.90;4.57;;;16.90;50.90;;;;;;20422;6941;119282;31
2023/09/27 06:26:46;;;;;;;5.35;5.05;;;16.80;51.20;;;;;;20203;6941;311555;31
2023/09/27 06:29:12;;;;;;;5.60;5.20;;;16.90;51.00;;;;;;20230;6941;281515;31
2023/09/27 06:31:37;;;;;;;4.90;4.60;;;17.10;50.50;;;;;;20438;6941;121008;31
2023/09/27 06:34:04;;;;;;;5.70;5.30;;;17.00;50.80;;;;;;20227;6941;315652;31
2023/09/27 06:36:34;;;;;;;5.17;4.77;;;17.10;50.90;;;;;;20413;6941;117921;31
2023/09/27 06:38:56;;;;;;;5.63;5.30;;;17.10;51.20;;;;;;20212;6941;316002;31
2023/09/27 06:41:22;;;;;;;5.43;5.13;;;17.20;51.10;;;;;;20434;6941;118213;31
2023/09/27 06:43:48;;;;;;;5.10;4.80;;;17.20;51.20;;;;;;20434;6941;117692;31
2023/09/27 06:46:15;;;;;;;6.00;5.60;;;17.10;51.60;;;;;;20223;6941;341063;31
2023/09/27 06:48:40;;;;;;;6.00;5.60;;;17.40;51.30;;;;;;20409;6941;117705;31
2023/09/27 06:51:05;;;;;;;5.10;4.80;;;17.40;51.30;;;;;;20411;6941;118816;31
2023/09/27 06:53:31;;;;;;;6.10;5.70;;;17.30;51.70;;;;;;20228;6941;314741;31
2023/09/27 06:55:56;;;;;;;5.37;4.97;;;17.60;51.60;;;;;;20435;6941;117402;31
2023/09/27 06:58:25;;;;;;;5.55;5.20;;;17.70;51.60;;;;;;20224;6941;344376;31
2023/09/27 07:00:51;;;;;;;54.83;42.53;;;18.00;51.50;;;;;;20214;6941;281095;31
2023/09/27 07:03:15;;;;;;;9.10;8.37;;;18.40;50.60;;;;;;20438;6941;117262;31
2023/09/27 07:05:42;;;;;;;5.30;4.90;;;18.50;50.70;;;;;;20444;6941;117573;31
2023/09/27 07:08:09;;;;;;;5.60;5.20;;;18.40;51.20;;;;;;20239;6941;310772;31
2023/09/27 07:10:34;;;;;;;5.55;5.15;;;18.70;51.00;;;;;;20212;6941;309621;31
2023/09/27 07:13:00;;;;;;;5.40;5.10;;;19.20;49.90;;;;;;20216;6941;310473;31
2023/09/27 07:15:25;;;;;;;5.40;5.03;;;19.60;49.30;;;;;;20221;6941;318058;31
2023/09/27 07:17:50;;;;;;;4.77;4.47;;;20.00;48.80;;;;;;20414;6941;117521;31
2023/09/27 07:20:33;;;;;;;5.70;5.22;;;20.00;49.00;;;;;;20236;6941;317144;31
2023/09/27 07:22:55;;;;;;;5.32;4.93;;;20.20;48.60;;;;;;20198;6940;281436;31
2023/09/27 07:25:21;;;;;;;5.50;5.13;;;20.50;48.30;;;;;;20235;6941;281542;31
2023/09/27 07:27:49;;;;;;;4.45;4.15;;;20.80;47.80;;;;;;20438;6941;119603;31
2023/09/27 07:30:18;;;;;;;5.30;4.90;;;20.70;48.10;;;;;;20224;6941;340866;31
2023/09/27 07:32:40;;;;;;;4.90;4.50;;;20.80;48.40;;;;;;20411;6941;121602;31
2023/09/27 07:35:14;;;;;;;5.33;4.67;;;20.80;49.40;;;;;;20441;6941;117681;31
2023/09/27 07:37:37;;;;;;;4.57;4.17;;;20.60;49.00;;;;;;20432;6941;117490;31
2023/09/27 07:40:08;;;;;;;4.33;3.93;;;20.50;49.60;;;;;;20433;6941;117465;31
2023/09/27 07:42:29;;;;;;;4.63;4.23;;;20.50;49.90;;;;;;20401;6941;120029;31
2023/09/27 07:44:55;;;;;;;4.40;3.83;;;20.50;49.90;;;;;;20432;6941;117799;31
2023/09/27 07:47:20;;;;;;;4.83;4.50;;;20.50;49.90;;;;;;20219;6941;315577;31
2023/09/27 07:49:45;;;;;;;5.25;4.87;;;20.90;48.20;;;;;;20227;6941;311021;31
2023/09/27 07:52:11;;;;;;;4.93;4.63;;;21.30;47.20;;;;;;20444;6941;121047;31
2023/09/27 07:54:37;;;;;;;4.97;4.60;;;21.40;47.20;;;;;;20213;6941;286656;31
2023/09/27 07:57:05;;;;;;;5.30;4.80;;;21.60;46.40;;;;;;20237;6941;283264;31
2023/09/27 07:59:28;;;;;;;5.10;4.60;;;22.00;45.90;;;;;;20228;6941;280342;31
2023/09/27 08:01:54;;;;;;;4.40;4.00;;;22.30;45.40;;;;;;20443;6941;117487;31
2023/09/27 08:04:19;;;;;;;4.85;4.55;;;22.20;45.70;;;;;;20216;6941;314751;31
2023/09/27 08:06:46;;;;;;;4.82;4.32;;;22.30;45.70;;;;;;20407;6941;118474;31
2023/09/27 08:09:10;;;;;;;5.07;4.78;;;22.20;46.00;;;;;;20228;6941;283087;31
2023/09/27 08:11:37;;;;;;;4.90;4.50;;;22.40;45.60;;;;;;20231;6941;285284;31
2023/09/27 08:14:01;;;;;;;4.60;4.30;;;22.60;45.30;;;;;;20431;6941;118259;31
2023/09/27 08:16:27;;;;;;;4.50;4.13;;;22.60;45.40;;;;;;20434;6941;119554;31
2023/09/27 08:18:52;;;;;;;4.90;4.60;;;22.40;45.80;;;;;;20204;6941;320396;31
2023/09/27 08:21:19;;;;;;;4.57;4.17;;;22.60;45.00;;;;;;20435;6941;117596;31
2023/09/27 08:23:44;;;;;;;4.67;4.37;;;22.60;45.40;;;;;;20229;6941;282504;31
2023/09/27 08:26:12;;;;;;;4.33;4.03;;;22.80;45.00;;;;;;20436;6941;118227;31
2023/09/27 08:28:36;;;;;;;5.67;4.20;;;22.90;45.20;;;;;;20197;6941;314503;31
2023/09/27 08:31:04;;;;;;;4.63;4.10;;;23.10;45.00;;;;;;20437;6941;118228;31
2023/09/27 08:33:27;;;;;;;4.95;3.72;;;23.10;45.00;;;;;;20232;6939;281500;31
2023/09/27 08:35:53;;;;;;;3.73;3.53;;;23.40;43.80;;;;;;20445;6941;116750;31
2023/09/27 08:38:18;;;;;;;4.50;4.20;;;23.40;44.10;;;;;;20240;6941;281223;31
2023/09/27 08:40:45;;;;;;;4.10;3.70;;;23.60;44.00;;;;;;20429;6941;119294;31
2023/09/27 08:43:10;;;;;;;4.53;4.20;;;23.70;44.40;;;;;;20237;6941;311601;31
2023/09/27 08:45:37;;;;;;;4.83;4.23;;;23.90;44.00;;;;;;20446;6941;117930;31
2023/09/27 08:48:01;;;;;;;4.32;4.03;;;24.00;44.10;;;;;;20231;6941;311315;31
2023/09/27 08:50:27;;;;;;;4.33;4.00;;;24.20;43.40;;;;;;20446;6941;117961;31
2023/09/27 08:52:53;;;;;;;4.28;3.97;;;24.20;43.60;;;;;;20215;6941;288840;31
2023/09/27 08:55:18;;;;;;;4.10;3.75;;;24.30;42.70;;;;;;20232;6941;312097;31
2023/09/27 08:57:51;;;;;;;4.37;4.03;;;24.60;43.00;;;;;;20233;6941;343735;31
2023/09/27 09:00:19;;;;;;;4.20;3.90;;;24.90;42.30;;;;;;20227;6941;281425;31
2023/09/27 09:02:43;;;;;;;4.40;4.07;;;25.10;42.20;;;;;;20197;6941;311376;31
2023/09/27 09:05:12;;;;;;;4.87;4.33;;;25.30;41.40;;;;;;20222;6941;284581;31
2023/09/27 09:07:38;;;;;;;4.12;3.80;;;25.40;41.20;;;;;;20229;6941;281268;31
2023/09/27 09:10:03;;;;;;;3.70;3.40;;;25.60;41.10;;;;;;20200;6941;311851;31
2023/09/27 09:12:29;;;;;;;3.57;3.37;;;25.60;40.90;;;;;;20206;6941;343972;31
2023/09/27 09:14:54;;;;;;;4.00;3.60;;;25.70;41.30;;;;;;20221;6941;281364;31
2023/09/27 09:17:25;;;;;;;3.80;3.50;;;25.90;40.80;;;;;;20232;6941;281955;31
2023/09/27 09:20:15;;;;;;;3.10;2.90;;;26.00;40.50;;;;;;20422;6941;120115;31
2023/09/27 09:22:33;;;;;;;5.03;3.40;;;25.90;40.90;;;;;;20380;6941;121158;31
2023/09/27 09:24:59;;;;;;;3.53;3.30;;;25.60;41.40;;;;;;20395;6941;118204;31
2023/09/27 09:27:23;;;;;;;3.50;3.30;;;25.40;41.90;;;;;;20221;6941;311373;31
2023/09/27 09:29:52;;;;;;;3.92;3.60;;;25.50;41.50;;;;;;20229;6941;310500;31
2023/09/27 09:32:21;;;;;;;3.60;3.30;;;25.90;41.50;;;;;;20435;6941;122905;31
2023/09/27 09:34:49;;;;;;;3.50;3.30;;;26.00;41.40;;;;;;20417;6941;120271;31
2023/09/27 09:37:22;;;;;;;3.90;3.50;;;25.90;41.60;;;;;;20226;6941;310501;31
2023/09/27 09:39:47;;;;;;;3.90;3.60;;;26.10;40.70;;;;;;20221;6941;311285;31
2023/09/27 09:42:13;;;;;;;3.93;3.23;;;26.50;40.20;;;;;;20421;6941;117522;31
2023/09/27 09:44:39;;;;;;;3.90;3.50;;;26.50;40.40;;;;;;20214;6940;280864;31
2023/09/27 09:47:11;;;;;;;3.90;3.60;;;26.70;40.00;;;;;;20235;6941;318006;31
2023/09/27 09:49:36;;;;;;;3.90;3.67;;;27.00;39.50;;;;;;20229;6941;308419;31
2023/09/27 09:52:06;;;;;;;3.80;3.60;;;27.20;39.30;;;;;;20435;6941;117437;31
2023/09/27 09:54:58;;;;;;;3.23;3.03;;;27.20;39.40;;;;;;20413;6941;117895;31
2023/09/27 09:57:01;;;;;;;3.90;3.63;;;27.00;39.90;;;;;;20023;6941;313034;31
2023/09/27 09:59:28;;;;;;;3.80;3.50;;;27.10;40.10;;;;;;20208;6941;312228;31
2023/09/27 10:01:56;;;;;;;4.00;3.60;;;27.40;39.50;;;;;;20195;6941;311142;31
2023/09/27 10:04:20;;;;;;;3.80;3.60;;;27.70;38.20;;;;;;20211;6941;314688;31
2023/09/27 10:06:47;;;;;;;3.73;3.43;;;27.90;38.50;;;;;;20409;6941;123678;31
2023/09/27 10:09:13;;;;;;;4.97;3.57;;;27.80;38.40;;;;;;20214;6941;310995;31
2023/09/27 10:11:38;;;;;;;3.73;3.43;;;27.90;38.20;;;;;;20226;6941;296632;31
2023/09/27 10:14:05;;;;;;;3.50;3.30;;;28.10;37.80;;;;;;20427;6941;117933;31
2023/09/27 10:16:30;;;;;;;3.10;2.90;;;28.00;38.00;;;;;;20399;6941;119753;31
2023/09/27 10:18:55;;;;;;;3.60;3.40;;;27.70;38.40;;;;;;20189;6952;312772;31
2023/09/27 10:21:22;;;;;;;3.50;3.20;;;27.80;38.40;;;;;;20393;6956;120109;31
2023/09/27 10:23:49;;;;;;;5.03;3.70;;;27.80;38.60;;;;;;20205;6952;287100;31
2023/09/27 10:26:20;;;;;;;3.80;3.40;;;27.90;38.60;;;;;;20172;6956;312514;31
2023/09/27 10:29:13;;;;;;;4.00;3.60;;;28.20;38.10;;;;;;20377;6952;121207;31
2023/09/27 10:31:27;;;;;;;3.87;3.40;;;28.10;38.20;;;;;;20131;6952;310657;31
2023/09/27 10:33:55;;;;;;;4.70;3.73;;;28.20;38.10;;;;;;20403;6952;120599;31
2023/09/27 10:36:20;;;;;;;3.78;3.42;;;28.20;38.30;;;;;;20105;6952;341392;31
2023/09/27 10:38:47;;;;;;;3.30;3.10;;;28.20;37.40;;;;;;20221;6952;310633;31
2023/09/27 10:41:43;;;;;;;4.10;3.07;;;28.40;37.00;;;;;;20404;6956;67768;31
2023/09/27 10:44:05;;;;;;;3.95;3.50;;;28.40;37.40;;;;;;20054;6952;312200;31
2023/09/27 10:46:45;;;;;;;3.20;3.00;;;28.50;36.50;;;;;;20182;6952;286536;31
2023/09/27 10:49:10;;;;;;;8.40;8.00;;;28.70;36.40;;;;;;20396;6952;118843;31
2023/09/27 10:51:35;;;;;;;3.00;2.80;;;28.50;36.60;;;;;;20405;6952;120515;31
2023/09/27 10:54:08;;;;;;;3.27;2.97;;;28.30;37.40;;;;;;20399;6952;120525;31
2023/09/27 10:56:33;;;;;;;2.90;2.70;;;28.10;37.70;;;;;;20384;6951;119691;31
2023/09/27 10:58:58;;;;;;;3.40;3.20;;;28.00;38.10;;;;;;20195;6952;342163;31
2023/09/27 11:01:24;;;;;;;3.60;3.23;;;28.20;38.00;;;;;;20401;6952;118335;31
2023/09/27 11:03:59;;;;;;;3.50;3.20;;;28.30;38.00;;;;;;20406;6952;117603;31
2023/09/27 11:06:25;;;;;;;3.30;3.00;;;28.20;38.30;;;;;;20400;6952;117827;31
2023/09/27 11:08:50;;;;;;;5.00;2.97;;;28.00;38.30;;;;;;20386;6952;120759;31
2023/09/27 11:11:16;;;;;;;3.45;3.15;;;27.90;38.60;;;;;;20193;6952;312237;31
2023/09/27 11:13:42;;;;;;;3.05;2.60;;;28.10;37.70;;;;;;20403;6952;117599;31
2023/09/27 11:16:14;;;;;;;3.22;2.62;;;28.20;37.60;;;;;;20192;6952;281141;31
2023/09/27 11:18:43;;;;;;;3.07;2.77;;;28.30;37.10;;;;;;20175;6952;311892;31
2023/09/27 11:21:08;;;;;;;3.37;3.00;;;28.70;37.20;;;;;;20151;6956;311318;31
2023/09/27 11:24:03;;;;;;;3.73;2.90;;;28.90;36.10;;;;;;20202;6952;281209;31
2023/09/27 11:26:30;;;;;;;3.30;2.92;;;29.10;36.20;;;;;;19196;7289;325247;31
2023/09/27 11:28:59;;;;;;;2.90;2.70;;;29.30;35.50;;;;;;20013;6952;117694;31
2023/09/27 11:31:25;;;;;;;2.90;2.70;;;29.20;36.20;;;;;;20397;6956;123451;31
2023/09/27 11:33:50;;;;;;;2.80;2.70;;;29.00;36.80;;;;;;20194;6952;281433;31
2023/09/27 11:36:15;;;;;;;2.50;2.40;;;28.90;36.60;;;;;;20201;6952;284931;31
2023/09/27 11:38:51;;;;;;;2.80;2.60;;;29.10;36.60;;;;;;20175;6952;310811;31
2023/09/27 11:41:21;;;;;;;3.12;2.72;;;29.30;36.00;;;;;;20196;6952;311341;31
2023/09/27 11:43:47;;;;;;;2.27;2.17;;;29.50;36.50;;;;;;20399;6952;118017;31
2023/09/27 11:46:13;;;;;;;3.25;2.33;;;29.30;35.00;;;;;;20194;6952;303288;31
2023/09/27 11:48:39;;;;;;;2.23;2.13;;;29.30;35.10;;;;;;20338;6952;118145;31
2023/09/27 11:51:05;;;;;;;2.50;2.40;;;29.10;35.40;;;;;;20177;6956;346265;31
2023/09/27 11:53:30;;;;;;;2.73;2.23;;;29.20;34.80;;;;;;20193;6952;328334;31
2023/09/27 11:55:56;;;;;;;2.60;2.40;;;29.30;34.50;;;;;;20188;6952;315047;31
2023/09/27 11:58:22;;;;;;;2.70;2.20;;;29.50;35.40;;;;;;20401;6952;117986;31
2023/09/27 12:00:47;;;;;;;2.73;2.20;;;29.30;34.60;;;;;;20342;6952;117584;31
2023/09/27 12:03:12;;;;;;;2.40;2.23;;;29.00;34.90;;;;;;20152;6952;311944;31
2023/09/27 12:05:38;;;;;;;2.60;2.40;;;29.00;34.40;;;;;;20394;6952;117722;31
2023/09/27 12:08:04;;;;;;;2.20;2.10;;;28.90;34.50;;;;;;20185;6954;312632;31
2023/09/27 12:10:31;;;;;;;2.10;2.00;;;28.90;33.90;;;;;;20381;6952;119867;31
2023/09/27 12:12:56;;;;;;;2.47;2.27;;;28.80;34.50;;;;;;20188;6956;281501;31
2023/09/27 12:15:22;;;;;;;2.30;2.20;;;28.80;34.50;;;;;;20201;6952;281096;31
2023/09/27 12:17:48;;;;;;;2.42;2.22;;;28.90;34.10;;;;;;20193;6952;341003;31
2023/09/27 12:20:13;;;;;;;2.20;2.10;;;29.10;33.90;;;;;;20183;6956;319119;31
2023/09/27 12:22:42;;;;;;;2.23;1.93;;;29.20;34.10;;;;;;20178;6952;294714;31
2023/09/27 12:25:08;;;;;;;2.50;2.30;;;29.30;34.10;;;;;;20398;6956;117643;31
2023/09/27 12:27:33;;;;;;;2.10;2.00;;;29.20;33.90;;;;;;20399;6952;118043;31
2023/09/27 12:29:59;;;;;;;1.90;1.80;;;28.90;34.00;;;;;;20401;6952;117906;31
2023/09/27 12:32:25;;;;;;;2.30;2.20;;;28.70;34.40;;;;;;20193;6952;305744;31
2023/09/27 12:34:50;;;;;;;2.20;2.00;;;28.70;33.90;;;;;;20381;6952;117652;31
2023/09/27 12:37:16;;;;;;;2.62;2.08;;;28.60;33.90;;;;;;20191;6952;313238;31
2023/09/27 12:39:41;;;;;;;2.05;1.95;;;28.70;33.90;;;;;;20402;6952;117637;31
2023/09/27 12:42:09;;;;;;;2.20;2.10;;;28.60;34.10;;;;;;20194;6952;311102;31